createdAt,value
2019-03-21T00:05:48.019Z,89.77
2019-03-21T00:08:11.815Z,55.20
2019-03-21T00:10:54.482Z,82.83
2019-03-21T00:13:17.822Z,75.90
2019-03-21T00:16:01.320Z,72.90
2019-03-21T00:18:24.691Z,83.70
2019-03-21T00:20:48.144Z,80.17
2019-03-21T00:23:11.460Z,75.40
2019-03-21T00:28:18.962Z,85.80
2019-03-21T00:30:42.314Z,88.50
2019-03-21T00:33:05.734Z,94.63
2019-03-21T00:35:29.130Z,57.57
2019-03-21T00:37:52.530Z,69.87
2019-03-21T00:40:17.120Z,82.13
2019-03-21T00:42:40.484Z,55.70
2019-03-21T00:45:03.902Z,79.33
2019-03-21T00:47:17.831Z,91.00
2019-03-21T00:50:00.469Z,80.13
2019-03-21T00:52:42.935Z,56.70
2019-03-21T00:55:07.299Z,78.93
2019-03-21T00:57:30.631Z,75.97
2019-03-21T00:59:53.973Z,66.20
2019-03-21T01:02:17.309Z,94.20
2019-03-21T01:04:40.747Z,87.10
2019-03-21T01:14:52.200Z,91.37
2019-03-21T01:17:15.539Z,99.37
2019-03-21T01:19:39.017Z,86.17
2019-03-21T01:22:02.333Z,79.87
2019-03-21T01:24:44.827Z,87.80
2019-03-21T01:27:27.302Z,73.60
2019-03-21T01:30:09.965Z,93.33
2019-03-21T01:32:33.306Z,76.17
2019-03-21T01:34:56.655Z,80.30
2019-03-21T01:37:20.015Z,78.80
2019-03-21T01:39:43.355Z,56.80
2019-03-21T01:42:06.715Z,82.07
2019-03-21T01:44:49.224Z,77.43
2019-03-21T01:47:04.048Z,92.40
2019-03-21T01:49:46.524Z,74.53
2019-03-21T01:52:09.921Z,65.80
2019-03-21T01:54:33.264Z,79.70
2019-03-21T01:56:56.637Z,72.77
2019-03-21T01:59:20.087Z,68.97
2019-03-21T02:01:43.441Z,76.77
2019-03-21T02:04:07.007Z,80.73
2019-03-21T02:06:30.411Z,90.83
2019-03-21T02:08:53.891Z,84.73
2019-03-21T02:13:59.888Z,88.70
2019-03-21T02:16:23.261Z,42.40
2019-03-21T02:18:46.584Z,67.23
2019-03-21T02:21:09.923Z,62.47
2019-03-21T02:26:02.502Z,65.67
2019-03-21T02:28:25.863Z,72.67
2019-03-21T02:31:08.397Z,83.90
2019-03-21T02:33:32.193Z,77.63
2019-03-21T02:35:55.557Z,91.63
2019-03-21T02:38:18.902Z,64.60
2019-03-21T02:40:42.288Z,69.10
2019-03-21T02:43:05.755Z,76.47
2019-03-21T02:45:48.217Z,72.63
2019-03-21T02:48:11.812Z,75.30
2019-03-21T02:50:35.170Z,81.80
2019-03-21T02:52:58.588Z,71.60
2019-03-21T02:55:41.138Z,85.27
2019-03-21T02:58:04.680Z,63.13
2019-03-21T03:03:31.441Z,70.77
2019-03-21T03:05:54.774Z,54.73
2019-03-21T03:10:48.517Z,80.03
2019-03-21T03:13:31.069Z,72.43
2019-03-21T03:16:13.579Z,77.23
2019-03-21T03:21:06.074Z,65.33
2019-03-21T03:23:29.576Z,74.60
2019-03-21T03:25:53.036Z,55.53
2019-03-21T03:28:17.730Z,78.33
2019-03-21T03:33:30.922Z,68.60
2019-03-21T03:36:13.559Z,35.83
2019-03-21T03:38:37.009Z,32.17
2019-03-21T03:41:00.380Z,69.13
2019-03-21T03:46:11.633Z,63.97
2019-03-21T03:48:35.024Z,68.50
2019-03-21T03:50:50.507Z,55.53
2019-03-21T03:53:05.917Z,46.37
2019-03-21T03:55:21.446Z,62.37
2019-03-21T03:57:36.864Z,60.47
2019-03-21T03:59:52.317Z,69.97
2019-03-21T04:02:06.229Z,52.63
2019-03-21T04:04:48.684Z,58.90
2019-03-21T04:07:23.194Z,65.23
2019-03-21T04:09:37.225Z,35.50
2019-03-21T04:17:18.895Z,66.93
2019-03-21T04:19:42.271Z,55.63
2019-03-21T04:22:05.628Z,45.67
2019-03-21T04:24:29.267Z,68.27
2019-03-21T04:29:35.847Z,67.23
2019-03-21T04:31:59.157Z,58.87
2019-03-21T04:34:22.522Z,64.07
2019-03-21T04:36:45.837Z,66.77
2019-03-21T04:39:20.902Z,66.30
2019-03-21T04:41:53.957Z,40.60
2019-03-21T04:44:17.288Z,50.47
2019-03-21T04:46:40.626Z,61.77
2019-03-21T04:49:04.133Z,50.10
2019-03-21T04:51:27.496Z,54.93
2019-03-21T04:53:53.315Z,36.43
2019-03-21T04:56:08.109Z,66.87
2019-03-21T04:58:23.517Z,33.10
2019-03-21T05:00:39.011Z,60.73
2019-03-21T05:02:53.559Z,59.60
2019-03-21T05:05:16.941Z,52.13
2019-03-21T05:07:40.309Z,37.00
2019-03-21T05:13:17.860Z,51.83
2019-03-21T05:15:33.074Z,47.67
2019-03-21T05:18:16.509Z,43.50
2019-03-21T05:20:39.895Z,72.97
2019-03-21T05:23:03.225Z,41.57
2019-03-21T05:28:16.346Z,36.10
2019-03-21T05:30:41.275Z,35.20
2019-03-21T05:36:12.948Z,42.20
2019-03-21T05:38:36.363Z,36.37
2019-03-21T05:40:59.796Z,29.90
2019-03-21T05:43:24.972Z,51.43
2019-03-21T05:46:07.489Z,47.93
2019-03-21T05:51:14.968Z,46.83
2019-03-21T05:53:30.344Z,43.83
2019-03-21T05:55:45.776Z,44.00
2019-03-21T05:58:00.335Z,27.10
2019-03-21T06:00:25.393Z,45.50
2019-03-21T06:03:07.901Z,49.40
2019-03-21T06:05:31.250Z,49.30
2019-03-21T06:07:56.676Z,46.03
2019-03-21T06:10:39.153Z,48.93
2019-03-21T06:13:02.687Z,48.53
2019-03-21T06:15:46.367Z,35.10
2019-03-21T06:18:28.734Z,43.60
2019-03-21T06:20:54.519Z,43.27
2019-03-21T06:23:36.860Z,48.37
2019-03-21T06:26:19.160Z,44.93
2019-03-21T06:28:42.602Z,48.40
2019-03-21T06:31:05.929Z,35.20
2019-03-21T06:33:29.294Z,44.73
2019-03-21T06:35:52.702Z,54.97
2019-03-21T06:38:35.287Z,58.23
2019-03-21T06:40:58.689Z,40.33
2019-03-21T06:43:41.165Z,41.03
2019-03-21T06:46:23.921Z,36.10
2019-03-21T06:48:47.240Z,44.10
2019-03-21T06:51:29.771Z,42.40
2019-03-21T06:53:43.995Z,40.63
2019-03-21T06:56:26.481Z,38.83
2019-03-21T06:58:52.495Z,47.50
2019-03-21T07:01:29.122Z,36.07
2019-03-21T07:03:39.987Z,56.43
2019-03-21T07:06:22.568Z,49.27
2019-03-21T07:08:45.933Z,45.20
2019-03-21T07:11:28.467Z,51.37
2019-03-21T07:13:51.824Z,44.83
2019-03-21T07:16:15.164Z,36.43
2019-03-21T07:18:57.732Z,50.07
2019-03-21T07:21:21.088Z,62.20
2019-03-21T07:23:44.452Z,40.63
2019-03-21T07:26:07.839Z,54.33
2019-03-21T07:28:31.199Z,37.60
2019-03-21T07:31:13.913Z,46.40
2019-03-21T07:33:37.272Z,52.30
2019-03-21T07:36:00.636Z,46.33
2019-03-21T07:38:43.143Z,48.07
2019-03-21T07:41:25.609Z,22.03
2019-03-21T07:43:48.984Z,48.27
2019-03-21T07:46:32.158Z,45.70
2019-03-21T07:48:56.495Z,34.40
2019-03-21T07:51:19.860Z,29.87
2019-03-21T07:53:33.889Z,40.37
2019-03-21T07:55:57.289Z,40.90
2019-03-21T07:58:20.696Z,38.23
2019-03-21T08:00:44.070Z,40.90
2019-03-21T08:03:26.780Z,40.20
2019-03-21T08:05:50.127Z,25.90
2019-03-21T08:08:13.568Z,36.67
2019-03-21T08:10:36.931Z,29.53
2019-03-21T08:13:11.308Z,43.27
2019-03-21T08:15:44.605Z,46.70
2019-03-21T08:18:07.948Z,37.03
2019-03-21T08:20:57.238Z,53.20
2019-03-21T08:23:15.511Z,45.03
2019-03-21T08:25:38.843Z,33.70
2019-03-21T08:28:21.332Z,51.63
2019-03-21T08:34:01.591Z,50.07
2019-03-21T08:36:24.935Z,51.33
2019-03-21T08:39:07.409Z,42.67
2019-03-21T08:41:49.857Z,45.53
2019-03-21T08:46:42.039Z,33.17
2019-03-21T08:49:24.668Z,34.80
2019-03-21T08:51:48.031Z,26.10
2019-03-21T08:54:03.769Z,23.53
2019-03-21T08:56:18.083Z,33.13
2019-03-21T08:58:41.491Z,27.57
2019-03-21T09:03:54.532Z,34.43
2019-03-21T09:06:37.020Z,28.27
2019-03-21T09:09:19.663Z,26.13
2019-03-21T09:11:43.023Z,27.57
2019-03-21T09:14:06.411Z,33.10
2019-03-21T09:16:29.728Z,18.70
2019-03-21T09:19:12.187Z,18.27
2019-03-21T09:21:35.551Z,25.23
2019-03-21T09:23:58.893Z,29.07
2019-03-21T09:26:22.228Z,28.20
2019-03-21T09:28:45.591Z,34.47
2019-03-21T09:31:08.915Z,31.57
2019-03-21T09:33:32.312Z,29.23
2019-03-21T09:35:55.892Z,36.80
2019-03-21T09:38:38.316Z,29.20
2019-03-21T09:41:01.708Z,32.40
2019-03-21T09:43:25.123Z,33.70
2019-03-21T09:48:37.830Z,34.20
2019-03-21T09:51:01.151Z,24.20
2019-03-21T09:56:06.737Z,32.30
2019-03-21T09:58:22.290Z,25.17
2019-03-21T10:00:37.885Z,30.30
2019-03-21T10:02:52.061Z,27.03
2019-03-21T10:05:15.457Z,19.43
2019-03-21T10:10:07.764Z,26.53
2019-03-21T10:12:31.154Z,24.13
2019-03-21T10:17:43.990Z,17.63
2019-03-21T10:20:07.451Z,15.77
2019-03-21T10:22:30.836Z,31.23
2019-03-21T10:29:52.888Z,28.93
2019-03-21T10:32:16.245Z,22.57
2019-03-21T10:34:39.567Z,26.27
2019-03-21T10:37:02.895Z,29.80
2019-03-21T10:42:06.892Z,17.77
2019-03-21T10:44:20.794Z,23.77
2019-03-21T10:46:44.194Z,22.00
2019-03-21T10:49:26.690Z,17.80
2019-03-21T10:51:55.006Z,17.57
2019-03-21T10:54:15.207Z,22.17
2019-03-21T10:56:29.236Z,23.27
2019-03-21T11:01:40.747Z,21.33
2019-03-21T11:06:59.784Z,36.20
2019-03-21T11:09:23.124Z,23.60
2019-03-21T11:14:36.365Z,27.50
2019-03-21T11:16:59.692Z,29.53
2019-03-21T11:19:34.033Z,29.47
2019-03-21T11:21:48.149Z,25.73
2019-03-21T11:24:11.483Z,23.63
2019-03-21T11:26:34.858Z,28.57
2019-03-21T11:28:58.268Z,30.00
2019-03-21T11:31:21.605Z,24.70
2019-03-21T11:36:53.864Z,23.33
2019-03-21T11:39:17.248Z,26.33
2019-03-21T11:41:59.732Z,30.40
2019-03-21T11:44:23.052Z,33.23
2019-03-21T11:46:46.389Z,19.47
2019-03-21T11:51:38.485Z,25.43
2019-03-21T11:54:01.800Z,33.77
2019-03-21T11:56:44.443Z,27.40
2019-03-21T11:58:58.252Z,22.83
2019-03-21T12:01:21.599Z,18.60
2019-03-21T12:03:44.952Z,33.87
2019-03-21T12:06:27.440Z,19.20
2019-03-21T12:11:21.406Z,20.13
2019-03-21T12:13:45.252Z,23.53
2019-03-21T12:16:08.582Z,26.10
2019-03-21T12:18:31.966Z,25.23
2019-03-21T12:20:55.307Z,27.03
2019-03-21T12:25:47.965Z,26.17
2019-03-21T12:28:11.320Z,25.60
2019-03-21T12:30:35.538Z,28.33
2019-03-21T12:33:10.074Z,14.93
2019-03-21T12:37:53.266Z,14.97
2019-03-21T12:40:16.625Z,19.53
2019-03-21T12:47:58.383Z,21.63
2019-03-21T12:50:40.832Z,19.10
2019-03-21T12:53:04.253Z,10.90
2019-03-21T12:58:02.119Z,19.77
2019-03-21T13:00:17.973Z,16.40
2019-03-21T13:02:43.170Z,18.47
2019-03-21T13:07:56.830Z,22.10
2019-03-21T13:10:20.175Z,19.70
2019-03-21T13:12:43.503Z,11.40
2019-03-21T13:20:25.941Z,13.63
2019-03-21T13:22:53.233Z,13.70
2019-03-21T13:25:14.435Z,18.50
2019-03-21T13:27:56.896Z,20.60
2019-03-21T13:30:20.332Z,11.23
2019-03-21T13:33:02.860Z,20.93
2019-03-21T13:35:32.525Z,17.70
2019-03-21T13:37:53.821Z,16.30
2019-03-21T13:40:35.543Z,10.97
2019-03-21T13:42:58.876Z,15.70
2019-03-21T13:45:22.312Z,18.87
2019-03-21T13:48:04.822Z,16.30
2019-03-21T13:50:47.274Z,22.87
2019-03-21T13:53:18.569Z,13.93
2019-03-21T13:55:35.674Z,17.73
2019-03-21T13:57:59.096Z,18.73
2019-03-21T14:00:14.634Z,17.63
2019-03-21T14:02:30.165Z,17.77
2019-03-21T14:04:45.612Z,24.73
2019-03-21T14:07:01.366Z,22.93
2019-03-21T14:09:15.797Z,19.27
2019-03-21T14:11:58.232Z,13.70
2019-03-21T14:14:21.599Z,16.63
2019-03-21T14:16:44.908Z,14.67
2019-03-21T14:19:08.208Z,10.10
2019-03-21T14:21:31.571Z,26.83
2019-03-21T14:23:55.060Z,17.43
2019-03-21T14:26:37.521Z,16.73
2019-03-21T14:29:11.887Z,21.37
2019-03-21T14:31:25.904Z,29.77
2019-03-21T14:33:49.241Z,15.20
2019-03-21T14:36:12.780Z,22.93
2019-03-21T14:38:36.095Z,18.30
2019-03-21T14:40:59.444Z,15.27
2019-03-21T14:43:22.753Z,19.73
2019-03-21T14:45:46.055Z,8.73
2019-03-21T14:48:09.399Z,24.70
2019-03-21T14:50:51.851Z,21.10
2019-03-21T14:53:34.312Z,20.83
2019-03-21T14:55:57.616Z,21.77
2019-03-21T14:58:20.936Z,19.90
2019-03-21T15:00:35.004Z,19.57
2019-03-21T15:03:17.465Z,16.70
2019-03-21T15:05:40.782Z,14.93
2019-03-21T15:10:33.463Z,14.00
2019-03-21T15:12:56.776Z,13.73
2019-03-21T15:15:20.106Z,21.80
2019-03-21T15:17:43.639Z,13.83
2019-03-21T15:23:10.571Z,27.20
2019-03-21T15:25:33.899Z,17.50
2019-03-21T15:27:57.259Z,20.10
2019-03-21T15:38:28.176Z,23.57
2019-03-21T15:40:51.495Z,20.27
2019-03-21T15:45:44.153Z,17.53
2019-03-21T15:48:26.634Z,21.07
2019-03-21T15:51:09.091Z,24.37
2019-03-21T15:53:32.427Z,14.47
2019-03-21T15:55:55.766Z,19.33
2019-03-21T15:58:38.217Z,19.47
2019-03-21T16:01:20.704Z,16.17
2019-03-21T16:03:36.400Z,20.70
2019-03-21T16:05:52.325Z,17.07
2019-03-21T16:08:08.957Z,20.13
2019-03-21T16:10:32.161Z,17.23
2019-03-21T16:12:55.471Z,19.00
2019-03-21T16:15:37.976Z,20.67
2019-03-21T16:18:01.329Z,17.53
2019-03-21T16:20:24.677Z,22.93
2019-03-21T16:22:48.020Z,18.40
2019-03-21T16:28:00.703Z,18.63
2019-03-21T16:30:43.194Z,18.33
2019-03-21T16:35:35.798Z,26.83
2019-03-21T16:38:18.269Z,20.13
2019-03-21T16:40:41.676Z,21.83
2019-03-21T16:43:05.838Z,21.43
2019-03-21T16:47:59.234Z,20.77
2019-03-21T16:50:41.714Z,23.63
2019-03-21T16:53:24.453Z,18.13
2019-03-21T16:55:51.048Z,21.80
2019-03-21T16:58:14.519Z,29.83
2019-03-21T17:02:59.938Z,23.63
2019-03-21T17:05:15.366Z,21.40
2019-03-21T17:07:31.181Z,21.73
2019-03-21T17:09:45.488Z,19.67
2019-03-21T17:12:08.837Z,20.70
2019-03-21T17:14:32.152Z,21.30
2019-03-21T17:17:14.724Z,34.60
2019-03-21T17:19:38.179Z,22.63
2019-03-21T17:22:01.495Z,14.27
2019-03-21T17:24:29.594Z,16.43
2019-03-21T17:26:49.946Z,24.50
2019-03-21T17:29:13.330Z,23.97
2019-03-21T17:34:13.681Z,25.40
2019-03-21T17:36:37.020Z,27.10
2019-03-21T17:39:00.355Z,23.00
2019-03-21T17:41:23.739Z,14.57
2019-03-21T17:43:47.226Z,24.60
2019-03-21T17:46:10.587Z,23.50
2019-03-21T17:48:33.976Z,24.13
2019-03-21T17:51:08.577Z,18.30
2019-03-21T17:53:22.359Z,19.57
2019-03-21T17:55:45.688Z,27.13
2019-03-21T17:58:09.055Z,18.20
2019-03-21T18:00:51.668Z,29.07
2019-03-21T18:03:15.067Z,26.90
2019-03-21T18:05:29.344Z,20.07
2019-03-21T18:08:04.002Z,24.70
2019-03-21T18:10:36.669Z,17.43
2019-03-21T18:16:09.025Z,15.20
2019-03-21T18:18:51.474Z,24.17
2019-03-21T18:21:33.965Z,23.23
2019-03-21T18:23:57.304Z,22.00
2019-03-21T18:26:20.733Z,18.70
2019-03-21T18:28:44.059Z,23.37
2019-03-21T18:31:07.466Z,24.17
2019-03-21T18:33:30.819Z,21.13
2019-03-21T18:35:54.165Z,23.10
2019-03-21T18:38:17.507Z,27.83
2019-03-21T18:40:59.984Z,30.63
2019-03-21T18:43:23.307Z,15.33
2019-03-21T18:45:46.634Z,29.60
2019-03-21T18:48:09.963Z,27.00
2019-03-21T18:50:52.423Z,24.27
2019-03-21T18:53:15.744Z,19.90
2019-03-21T18:55:39.063Z,23.97
2019-03-21T18:58:02.540Z,33.10
2019-03-21T19:00:26.047Z,19.53
2019-03-21T19:02:39.953Z,35.47
2019-03-21T19:04:54.087Z,25.90
2019-03-21T19:07:17.412Z,33.03
2019-03-21T19:09:40.743Z,26.90
2019-03-21T19:17:22.992Z,26.97
2019-03-21T19:19:46.368Z,32.10
2019-03-21T19:24:38.212Z,25.87
2019-03-21T19:27:01.515Z,28.13
2019-03-21T19:29:24.850Z,28.37
2019-03-21T19:31:48.173Z,26.50
2019-03-21T19:34:11.483Z,23.30
2019-03-21T19:36:34.808Z,20.87
2019-03-21T19:39:17.281Z,28.07
2019-03-21T19:41:40.593Z,28.37
2019-03-21T19:44:23.052Z,28.00
2019-03-21T19:46:46.368Z,32.43
2019-03-21T19:49:09.781Z,16.67
2019-03-21T19:54:15.722Z,23.80
2019-03-21T19:56:39.052Z,29.67
2019-03-21T19:59:02.453Z,28.43
2019-03-21T20:01:25.867Z,21.67
2019-03-21T20:03:49.295Z,26.27
2019-03-21T20:06:03.721Z,34.60
2019-03-21T20:08:27.075Z,21.53
2019-03-21T20:10:50.492Z,29.10
2019-03-21T20:13:13.816Z,33.87
2019-03-21T20:15:56.649Z,28.70
2019-03-21T20:18:19.989Z,34.30
2019-03-21T20:20:43.353Z,30.83
2019-03-21T20:23:06.791Z,26.80
2019-03-21T20:25:49.224Z,30.47
2019-03-21T20:28:31.718Z,40.17
2019-03-21T20:31:14.181Z,25.90
2019-03-21T20:33:37.548Z,30.40
2019-03-21T20:36:00.866Z,19.10
2019-03-21T20:38:24.209Z,35.07
2019-03-21T20:40:47.565Z,33.50
2019-03-21T20:43:10.880Z,34.87
2019-03-21T20:48:42.399Z,32.17
2019-03-21T20:51:05.741Z,34.00
2019-03-21T20:53:29.149Z,33.57
2019-03-21T20:56:11.620Z,30.57
2019-03-21T20:58:34.957Z,38.13
2019-03-21T21:06:10.323Z,40.37
2019-03-21T21:08:24.515Z,41.60
2019-03-21T21:10:47.870Z,40.40
2019-03-21T21:16:14.261Z,38.70
2019-03-21T21:18:37.583Z,43.47
2019-03-21T21:21:00.903Z,49.17
2019-03-21T21:23:24.321Z,39.90
2019-03-21T21:25:47.655Z,33.30
2019-03-21T21:28:11.170Z,45.70
2019-03-21T21:30:34.596Z,44.73
2019-03-21T21:35:42.134Z,46.67
2019-03-21T21:38:24.676Z,47.23
2019-03-21T21:40:48.135Z,42.57
2019-03-21T21:46:14.718Z,44.63
2019-03-21T21:48:38.117Z,42.50
2019-03-21T21:51:01.544Z,45.80
2019-03-21T21:53:25.288Z,39.20
2019-03-21T21:56:17.228Z,44.77
2019-03-21T22:01:04.961Z,41.87
2019-03-21T22:03:28.379Z,42.80
2019-03-21T22:05:51.785Z,45.17
2019-03-21T22:10:34.834Z,46.87
2019-03-21T22:13:17.095Z,40.60
2019-03-21T22:15:59.673Z,50.00
2019-03-21T22:18:23.198Z,44.87
2019-03-21T22:20:46.631Z,51.00
2019-03-21T22:23:10.541Z,45.20
2019-03-21T22:25:34.661Z,45.70
2019-03-21T22:28:17.125Z,49.50
2019-03-21T22:33:44.287Z,52.20
2019-03-21T22:36:27.203Z,45.77
2019-03-21T22:41:19.737Z,46.73
2019-03-21T22:43:47.691Z,47.07
2019-03-21T22:46:11.530Z,47.67
2019-03-21T22:48:16.607Z,55.03
2019-03-21T22:50:21.278Z,45.00
2019-03-21T22:52:25.796Z,55.63
2019-03-21T22:54:31.792Z,49.13
2019-03-21T22:56:41.479Z,48.97
2019-03-21T22:58:43.546Z,45.73
2019-03-21T23:00:50.776Z,48.83
2019-03-21T23:02:55.330Z,46.57
2019-03-21T23:05:00.339Z,43.90
2019-03-21T23:07:05.343Z,54.93
2019-03-21T23:09:10.305Z,48.23
2019-03-21T23:11:16.721Z,49.23
2019-03-21T23:13:21.196Z,46.73
2019-03-21T23:15:25.685Z,58.13
2019-03-21T23:17:30.087Z,51.80
2019-03-21T23:19:34.551Z,49.17
2019-03-21T23:21:41.333Z,47.23
2019-03-21T23:23:49.032Z,54.83
2019-03-21T23:25:53.511Z,41.83
2019-03-21T23:27:57.967Z,37.37
2019-03-21T23:30:02.539Z,41.97
2019-03-21T23:32:09.634Z,42.93
2019-03-21T23:34:14.084Z,38.60
2019-03-21T23:36:18.729Z,38.03
2019-03-21T23:38:23.278Z,36.27
2019-03-21T23:40:27.779Z,39.90
2019-03-21T23:42:32.285Z,39.97
2019-03-21T23:44:36.871Z,41.73
2019-03-21T23:46:41.833Z,40.90
2019-03-21T23:48:46.377Z,42.33
2019-03-21T23:50:50.746Z,40.67
2019-03-21T23:52:55.137Z,46.17
2019-03-21T23:54:59.613Z,46.03
2019-03-21T23:57:04.972Z,38.60
2019-03-21T23:59:09.620Z,46.40
